McNary Field
KSLE : now visible

Airfield :











YOU CAN JOIN US ON...

 
LOGIN :

Register | Disclaimer

   EN    FR    IT 

 









Legend :    VFR   Marginal VFR   IFR   Intensive IFR   Very Intensive IFR
Visi :
Ceiling :
>= 8 km
>= 3000ft
5 to 8 km
1000 to 3000 ft
1500m to 5 km
500 to 1000 ft
800 to 1500m
200 to 500 ft
< 800m
< 200 ft
Symbols :   Thunderstorms  Fog  Heavy snow  Heavy precipitations  Wind > 20 kt






- Airport Elevation : 214 ft


KSLE - McNary Field

CURRENT METAR :
  • 150756Z AUTO 03004KT 10SM OVC009 06/04 A3004 RMK AO2 CIG 007V011 SLP174 T00560039 400780033

EXPIRED METARs :
  • 150729Z AUTO 32003KT 10SM OVC009 05/04 A3004 RMK AO2 CIG 007V014 T00500039
  • 150705Z AUTO 32004KT 10SM OVC011 06/04 A3003 RMK AO2 T00560039
  • 150611Z AUTO 00000KT 10SM OVC009 05/04 A3002 RMK AO2 T00500039
  • 150556Z AUTO 00000KT 10SM BKN010 OVC013 04/04 A3002 RMK AO2 SLP165 T00440039 10072 20033 51009
  • 150546Z AUTO 00000KT 9SM BKN010 OVC013 04/04 A3001 RMK AO2 CIG 008V012 T00440039
  • 150532Z AUTO 00000KT 8SM BKN008 BKN012 OVC024 04/04 A3001 RMK AO2 T00440039
  • 150524Z AUTO 00000KT 8SM SCT008 BKN012 OVC024 04/03 A3001 RMK AO2 T00390033

TAF KSLE
Valid from the 15 at 06:00 until the 16 at 06:00 UTC


150538Z 1506/1606 00000KT 6SM BR BKN008 OVC025
TEMPO 1506/1509 3SM BR SCT008 OVC025
FM150900 00000KT 1SM BR OVC006
FM151000 00000KT 1/2SM FG OVC006
FM151900 19005KT 4SM BR SCT006 BKN025
FM152100 20004KT P6SM SCT026 OVC060



MET'MAP, your aeronautical weather chart ! - Copyright ORBIFLY December 2007 - Disclaimer

ORBIFLY MET'MAP TEAM :

Programming & Development : Alexandra Zaïnal
Concept & original design : Baudouin d'Aumeries
Assistance for programming : Marc-Olivier Méhu
Technical & hardware support : Manuel Goepfert

Contact : metmap@orbifly.com




SOURCES & CREDITS :

   NOAA       Earth
Advisory